Time;durP1;ratioP1;P1;durP2;ratioP2;P2;SDS_P1;SDS_P2;PMS_P1;PMS_P2;Temp;Humidity;BMP_temperature;BMP_pressure;BME280_temperature;BME280_humidity;BME280_pressure;Samples;Min_cycle;Max_cycle;Signal;HPM_P1;HPM_P2
2022/11/18 07:20:06;;;;;;;25.00;19.47;;;;;;;5.99;100.00;97765.00;6205575;23;20276;-81
2022/11/18 07:22:32;;;;;;;24.53;18.87;;;;;;;6.02;100.00;97769.81;6219615;23;20201;-81
2022/11/18 07:24:59;;;;;;;26.53;20.70;;;;;;;6.07;100.00;97767.28;6193682;23;20256;-81
2022/11/18 07:27:26;;;;;;;26.00;20.10;;;;;;;6.12;100.00;97780.66;6219349;23;20205;-81
2022/11/18 07:29:52;;;;;;;25.83;19.87;;;;;;;6.11;100.00;97780.94;6218665;23;20205;-81
2022/11/18 07:32:19;;;;;;;25.73;19.30;;;;;;;6.01;100.00;97778.88;6219459;23;20197;-81
2022/11/18 07:34:46;;;;;;;24.30;18.97;;;;;;;6.14;100.00;97783.91;6220841;23;20283;-81
2022/11/18 07:37:12;;;;;;;24.50;19.00;;;;;;;6.19;100.00;97769.91;6221216;23;20202;-82
2022/11/18 07:39:39;;;;;;;26.67;19.47;;;;;;;6.26;100.00;97764.44;6194669;23;20205;-81
2022/11/18 07:42:05;;;;;;;24.80;18.83;;;;;;;6.28;100.00;97767.69;6219948;23;20201;-81
2022/11/18 07:44:32;;;;;;;24.53;18.63;;;;;;;6.42;100.00;97763.69;6219966;23;20205;-82
2022/11/18 07:46:58;;;;;;;24.67;18.37;;;;;;;6.60;100.00;97758.16;6220176;23;20255;-82
2022/11/18 07:49:25;;;;;;;26.60;18.27;;;;;;;6.74;100.00;97746.16;6220071;23;20207;-81
2022/11/18 07:51:52;;;;;;;21.13;17.43;;;;;;;6.87;100.00;97739.72;6168780;23;20509;-81
2022/11/18 07:54:19;;;;;;;22.50;17.53;;;;;;;6.94;100.00;97737.72;6193232;23;20205;-81
2022/11/18 07:56:45;;;;;;;21.00;15.67;;;;;;;7.14;100.00;97739.91;6219633;23;20211;-81
2022/11/18 07:59:12;;;;;;;22.33;16.40;;;;;;;7.19;100.00;97739.94;6219344;23;20257;-81
2022/11/18 08:01:38;;;;;;;19.97;15.73;;;;;;;7.22;100.00;97736.81;6219803;23;20201;-81
2022/11/18 08:04:07;;;;;;;19.60;15.37;;;;;;;7.32;100.00;97731.66;6219146;23;20216;-80
2022/11/18 08:06:34;;;;;;;20.73;15.60;;;;;;;7.40;100.00;97731.22;6219887;23;20201;-81
2022/11/18 08:09:01;;;;;;;18.17;14.57;;;;;;;7.34;100.00;97733.00;6193710;23;20209;-81
2022/11/18 08:11:27;;;;;;;17.47;14.60;;;;;;;7.42;100.00;97726.44;6193750;23;20201;-81
2022/11/18 08:13:54;;;;;;;16.10;13.80;;;;;;;7.58;100.00;97722.94;6219755;23;20220;-80
2022/11/18 08:16:22;;;;;;;17.57;13.77;;;;;;;7.71;100.00;97725.25;6218070;23;20431;-81
2022/11/18 08:18:50;;;;;;;17.53;14.00;;;;;;;7.63;100.00;97728.34;6219717;23;20239;-81
2022/11/18 08:21:20;;;;;;;17.50;13.50;;;;;;;7.70;100.00;97731.63;6220052;23;20212;-81
2022/11/18 08:23:53;;;;;;;17.83;13.47;;;;;;;7.72;100.00;97737.53;6179354;23;20280;-80
2022/11/18 08:26:21;;;;;;;17.57;13.53;;;;;;;7.83;100.00;97747.28;6218750;23;20236;-81
2022/11/18 08:28:47;;;;;;;17.77;14.07;;;;;;;7.96;100.00;97740.75;6192963;23;20669;-81
2022/11/18 08:31:25;;;;;;;15.30;13.33;;;;;;;8.02;100.00;97739.78;6220210;23;20284;-81
2022/11/18 08:33:56;;;;;;;17.27;13.40;;;;;;;8.06;100.00;97743.56;6179909;23;20252;-81
2022/11/18 08:36:25;;;;;;;15.30;12.63;;;;;;;8.11;100.00;97748.16;6219947;23;20264;-81
2022/11/18 08:38:57;;;;;;;15.73;12.87;;;;;;;8.02;100.00;97742.44;6194771;23;20267;-80
2022/11/18 08:41:32;;;;;;;15.63;12.20;;;;;;;8.03;100.00;97743.22;6221979;23;20201;-81
2022/11/18 08:44:00;;;;;;;16.13;13.10;;;;;;;7.70;100.00;97736.97;6220772;23;20231;-81
2022/11/18 08:46:27;;;;;;;16.13;12.80;;;;;;;7.89;100.00;97738.28;6219688;23;20208;-80
2022/11/18 08:48:53;;;;;;;16.10;12.80;;;;;;;8.00;100.00;97733.88;6193111;23;20275;-80
2022/11/18 08:51:20;;;;;;;16.27;13.30;;;;;;;8.06;100.00;97742.75;6220153;23;20284;-80
2022/11/18 08:53:47;;;;;;;16.63;13.37;;;;;;;8.11;100.00;97738.28;6219601;23;20209;-80
2022/11/18 08:56:16;;;;;;;15.80;13.30;;;;;;;8.04;100.00;97737.66;6218914;23;20211;-80
2022/11/18 08:58:42;;;;;;;14.57;12.60;;;;;;;8.16;100.00;97738.34;6194089;23;20280;-81
2022/11/18 09:01:09;;;;;;;15.17;12.60;;;;;;;8.05;100.00;97733.13;6193883;23;20287;-80
2022/11/18 09:03:36;;;;;;;15.57;12.83;;;;;;;8.19;100.00;97734.34;6219999;23;20319;-81
2022/11/18 09:06:14;;;;;;;15.67;13.23;;;;;;;8.46;100.00;97745.06;6206169;23;20211;-80
2022/11/18 09:08:41;;;;;;;17.83;13.90;;;;;;;8.56;100.00;97743.31;6194477;23;20205;-80
2022/11/18 09:11:14;;;;;;;16.10;13.83;;;;;;;8.46;100.00;97737.88;6193488;23;20201;-81
2022/11/18 09:13:41;;;;;;;15.13;12.83;;;;;;;8.60;100.00;97740.94;6219668;23;20209;-80
2022/11/18 09:16:29;;;;;;;16.37;13.37;;;;;;;8.40;100.00;97738.88;6220050;23;20236;-81
2022/11/18 09:18:56;;;;;;;15.13;12.53;;;;;;;8.46;100.00;97732.53;6193101;23;20208;-80
2022/11/18 09:21:24;;;;;;;14.67;12.70;;;;;;;8.31;100.00;97730.50;6193509;23;20209;-80
2022/11/18 09:23:51;;;;;;;15.30;12.57;;;;;;;8.06;100.00;97732.88;6216611;23;20276;-81
2022/11/18 09:26:21;;;;;;;13.57;12.00;;;;;;;8.14;100.00;97735.09;6188903;23;20236;-79
2022/11/18 09:28:51;;;;;;;13.30;11.20;;;;;;;8.05;100.00;97730.47;6189199;23;20280;-79
2022/11/18 09:31:17;;;;;;;14.50;12.30;;;;;;;7.85;100.00;97731.81;6188972;23;20678;-79
2022/11/18 09:33:44;;;;;;;15.50;12.43;;;;;;;7.78;100.00;97741.06;6215145;23;20673;-80
2022/11/18 09:36:16;;;;;;;14.43;12.30;;;;;;;7.82;100.00;97739.53;6188164;23;20205;-79
2022/11/18 09:38:44;;;;;;;14.33;12.50;;;;;;;7.77;100.00;97736.78;6215544;23;20214;-80
2022/11/18 09:41:35;;;;;;;14.53;12.77;;;;;;;7.61;100.00;97733.09;6190244;23;20527;-79
2022/11/18 09:44:38;;;;;;;16.10;13.43;;;;;;;7.52;100.00;97726.59;6217844;23;20593;-80
2022/11/18 09:47:26;;;;;;;16.70;13.73;;;;;;;7.40;100.00;97718.72;6219502;23;20216;-81
2022/11/18 09:49:56;;;;;;;17.00;13.43;;;;;;;7.54;100.00;97708.50;6220436;23;20217;-81
2022/11/18 09:52:26;;;;;;;17.67;14.03;;;;;;;7.44;100.00;97703.84;6197121;23;20201;-82
2022/11/18 09:55:03;;;;;;;19.03;14.70;;;;;;;7.49;100.00;97703.91;6177843;23;20201;-81
2022/11/18 09:57:39;;;;;;;19.70;15.50;;;;;;;7.36;100.00;97690.94;6224183;23;20278;-80
2022/11/18 10:00:29;;;;;;;19.63;15.47;;;;;;;7.44;100.00;97690.53;6198024;23;20209;-81
2022/11/18 10:03:13;;;;;;;21.33;16.53;;;;;;;7.43;100.00;97696.91;6174141;23;20208;-81
2022/11/18 10:06:08;;;;;;;21.33;16.33;;;;;;;7.61;100.00;97706.44;6162961;23;20202;-81
2022/11/18 10:08:49;;;;;;;21.53;16.27;;;;;;;7.65;100.00;97712.91;6227433;23;20202;-82
2022/11/18 10:11:19;;;;;;;24.27;17.77;;;;;;;7.57;100.00;97701.88;6232208;23;20206;-82
2022/11/18 10:14:11;;;;;;;24.23;17.77;;;;;;;7.82;100.00;97716.34;6161388;23;20202;-82
2022/11/18 10:16:49;;;;;;;25.37;17.73;;;;;;;7.92;100.00;97710.31;6206871;23;20201;-81
2022/11/18 10:19:41;;;;;;;26.77;18.57;;;;;;;7.91;100.00;97696.19;6230595;23;20211;-82
2022/11/18 10:27:01;;;;;;;21.87;16.07;;;;;;;8.22;100.00;97694.66;6206640;23;20204;-82
2022/11/18 10:29:31;;;;;;;23.37;17.47;;;;;;;8.33;100.00;97685.72;6183527;23;20231;-82
2022/11/18 10:32:17;;;;;;;24.83;18.00;;;;;;;8.09;100.00;97687.03;6210281;23;20172;-82
2022/11/18 10:35:03;;;;;;;22.53;17.90;;;;;;;8.19;100.00;97689.00;6210538;23;20237;-83
2022/11/18 10:37:36;;;;;;;25.73;18.50;;;;;;;8.35;100.00;97696.16;6214175;23;20240;-82
2022/11/18 10:40:32;;;;;;;21.73;16.97;;;;;;;8.31;100.00;97684.34;6214131;23;20173;-82
2022/11/18 10:42:59;;;;;;;22.93;16.97;;;;;;;8.48;100.00;97674.41;6186385;23;20214;-82
2022/11/18 10:45:32;;;;;;;23.33;17.77;;;;;;;8.34;100.00;97684.69;6210625;23;20146;-82
2022/11/18 10:48:19;;;;;;;24.67;17.53;;;;;;;8.25;100.00;97683.50;6208604;23;20142;-82
2022/11/18 10:50:47;;;;;;;25.67;17.00;;;;;;;8.41;100.00;97671.13;6204937;23;20172;-81
2022/11/18 10:53:32;;;;;;;22.87;16.67;;;;;;;8.47;100.00;97664.78;6229206;23;20678;-82
2022/11/18 10:56:04;;;;;;;23.63;16.40;;;;;;;8.50;100.00;97664.25;6179108;23;20161;-82
2022/11/18 10:58:35;;;;;;;21.10;16.20;;;;;;;8.40;100.00;97675.66;6202345;23;20216;-81
2022/11/18 11:01:09;;;;;;;21.60;15.53;;;;;;;8.15;100.00;97675.38;6202214;23;20173;-81
2022/11/18 11:03:40;;;;;;;20.37;15.53;;;;;;;7.95;100.00;97667.16;6200278;23;20634;-81
2022/11/18 11:06:19;;;;;;;19.37;14.83;;;;;;;7.68;100.00;97659.13;6226087;23;20209;-81
2022/11/18 11:08:47;;;;;;;19.43;14.47;;;;;;;7.94;100.00;97674.34;6226485;23;20232;-81
2022/11/18 11:11:28;;;;;;;18.93;14.57;;;;;;;7.40;100.00;97667.28;6199936;23;20663;-81
2022/11/18 11:14:27;;;;;;;19.73;14.33;;;;;;;7.53;100.00;97664.25;6227283;23;20579;-81
2022/11/18 11:17:00;;;;;;;18.73;14.27;;;;;;;7.72;100.00;97670.06;6206458;23;20146;-82
2022/11/18 11:19:38;;;;;;;19.70;14.40;;;;;;;7.75;100.00;97670.38;6212435;23;20209;-81
2022/11/18 11:22:09;;;;;;;18.37;14.33;;;;;;;7.62;100.00;97664.63;6211349;23;20216;-82
2022/11/18 11:24:36;;;;;;;21.87;15.43;;;;;;;7.83;100.00;97661.97;6211012;23;20213;-82
2022/11/18 11:27:20;;;;;;;20.20;14.63;;;;;;;8.05;100.00;97669.13;6236654;23;20181;-82
2022/11/18 11:30:32;;;;;;;20.20;14.40;;;;;;;8.12;100.00;97656.41;6216445;23;20165;-82
2022/11/18 11:33:29;;;;;;;19.10;14.10;;;;;;;8.15;100.00;97663.91;6236662;23;20175;-81
2022/11/18 11:36:33;;;;;;;20.60;14.30;;;;;;;7.89;100.00;97652.13;6240481;23;20158;-82
2022/11/18 11:39:21;;;;;;;17.43;13.77;;;;;;;8.07;100.00;97659.03;6189576;23;20170;-82
2022/11/18 11:42:05;;;;;;;16.87;13.37;;;;;;;7.75;100.00;97650.91;6237715;23;20185;-81
2022/11/18 11:45:05;;;;;;;18.43;12.83;;;;;;;7.73;100.00;97650.38;6209895;23;20166;-82
2022/11/18 11:48:06;;;;;;;18.57;13.37;;;;;;;7.50;100.00;97646.91;6233141;23;20153;-81
2022/11/18 11:50:52;;;;;;;17.20;12.63;;;;;;;7.64;100.00;97652.69;6182815;23;20225;-81
2022/11/18 11:54:08;;;;;;;15.97;11.63;;;;;;;7.63;100.00;97647.59;6206845;23;20219;-82
2022/11/18 11:56:43;;;;;;;17.90;12.03;;;;;;;7.61;100.00;97653.16;6199749;23;20166;-81
2022/11/18 11:59:31;;;;;;;15.53;11.50;;;;;;;7.64;100.00;97655.34;6225937;23;20153;-81
2022/11/18 12:02:23;;;;;;;18.77;13.70;;;;;;;7.61;100.00;97661.16;6199239;23;20593;-81
2022/11/18 12:04:52;;;;;;;16.60;12.83;;;;;;;7.61;100.00;97663.81;6199789;23;20193;-81
2022/11/18 12:07:22;;;;;;;18.00;12.53;;;;;;;7.73;100.00;97661.84;6198386;23;20153;-81
2022/11/18 12:10:01;;;;;;;17.97;12.37;;;;;;;7.86;100.00;97653.47;6173795;23;20176;-81
2022/11/18 12:12:51;;;;;;;18.00;11.67;;;;;;;8.01;100.00;97652.00;6199260;23;20161;-82
2022/11/18 12:15:40;;;;;;;12.77;10.40;;;;;;;7.94;100.00;97655.69;6198361;23;20194;-81
2022/11/18 12:18:12;;;;;;;10.03;7.80;;;;;;;8.12;100.00;97657.19;6226620;23;20487;-81
2022/11/18 12:20:46;;;;;;;10.13;7.70;;;;;;;8.13;100.00;97652.66;6200140;23;20209;-81
2022/11/18 12:23:15;;;;;;;11.73;8.73;;;;;;;8.20;100.00;97656.75;6198224;23;20191;-81
2022/11/18 12:25:50;;;;;;;12.80;9.70;;;;;;;8.01;100.00;97644.81;6199009;23;20184;-81
2022/11/18 12:28:30;;;;;;;12.30;8.73;;;;;;;8.17;100.00;97656.44;6197631;23;20145;-81
2022/11/18 12:31:19;;;;;;;11.07;8.47;;;;;;;8.13;100.00;97658.00;6198175;23;20150;-80
2022/11/18 12:33:56;;;;;;;12.87;8.93;;;;;;;7.84;100.00;97633.41;6224827;23;20174;-81
2022/11/18 12:36:29;;;;;;;10.77;8.93;;;;;;;7.91;100.00;97645.53;6211881;23;20163;-81
2022/11/18 12:39:22;;;;;;;11.23;8.80;;;;;;;7.97;100.00;97651.72;6213275;23;20521;-82
2022/11/18 12:44:47;;;;;;;11.67;9.67;;;;;;;8.15;100.00;97643.38;6201737;23;20196;-80
2022/11/18 12:47:16;;;;;;;12.43;9.33;;;;;;;7.96;100.00;97645.56;6197545;23;20161;-82
2022/11/18 12:49:43;;;;;;;12.27;9.70;;;;;;;8.10;100.00;97653.19;6197821;23;20160;-81
2022/11/18 12:52:28;;;;;;;15.53;12.10;;;;;;;7.90;100.00;97659.09;6223516;23;20165;-81
2022/11/18 12:54:57;;;;;;;22.33;16.00;;;;;;;7.76;100.00;97648.00;6224109;23;20186;-81
2022/11/18 12:57:32;;;;;;;32.43;23.40;;;;;;;7.69;100.00;97650.06;6223615;23;20164;-81
2022/11/18 13:00:15;;;;;;;15.33;11.43;;;;;;;7.68;100.00;97655.63;6198009;23;20226;-81
2022/11/18 13:02:51;;;;;;;12.77;10.50;;;;;;;7.77;100.00;97656.81;6223039;23;20209;-81
2022/11/18 13:05:22;;;;;;;11.73;10.53;;;;;;;7.71;100.00;97653.28;6223233;23;20177;-81
2022/11/18 13:17:50;;;;;;;23.07;19.83;;;;;;;7.13;100.00;97658.38;6175628;23;20176;-81
2022/11/18 13:19:24;;;;;;;13.47;11.17;;;;;;;6.91;100.00;97663.66;6201598;23;20185;-81
2022/11/18 13:24:46;;;;;;;11.00;8.90;;;;;;;6.61;100.00;97677.31;6199800;23;20177;-81
2022/11/18 13:27:33;;;;;;;11.60;9.07;;;;;;;6.52;100.00;97676.91;6195727;23;20557;-81
2022/11/18 13:30:04;;;;;;;13.63;10.67;;;;;;;6.53;100.00;97673.16;6222361;23;20157;-81
2022/11/18 13:32:31;;;;;;;13.90;11.30;;;;;;;6.36;100.00;97677.66;6197654;23;20572;-82
2022/11/18 13:35:09;;;;;;;12.77;10.47;;;;;;;6.25;100.00;97675.91;6198514;23;20216;-82
2022/11/18 13:37:54;;;;;;;13.97;10.83;;;;;;;6.15;100.00;97668.53;6198863;23;20167;-81
2022/11/18 13:40:38;;;;;;;12.43;9.80;;;;;;;6.05;100.00;97663.03;6173172;23;20162;-82
2022/11/18 13:43:04;;;;;;;12.30;9.87;;;;;;;6.08;100.00;97678.50;6198216;23;20180;-81
2022/11/18 13:45:31;;;;;;;13.33;10.07;;;;;;;5.95;100.00;97662.03;6196971;23;20551;-81
2022/11/18 13:48:04;;;;;;;12.10;10.07;;;;;;;6.23;100.00;97671.84;6223317;23;20162;-81
2022/11/18 13:50:37;;;;;;;12.97;10.37;;;;;;;6.16;100.00;97680.75;6223936;23;20157;-82
2022/11/18 13:53:32;;;;;;;19.00;16.50;;;;;;;6.29;100.00;97681.53;6198642;23;20170;-82
2022/11/18 13:56:22;;;;;;;12.93;10.10;;;;;;;6.14;100.00;97677.56;6196592;23;20224;-81
2022/11/18 13:58:49;;;;;;;15.90;10.47;;;;;;;5.90;100.00;97681.34;6196636;23;20155;-81
2022/11/18 14:01:35;;;;;;;16.67;12.23;;;;;;;5.82;100.00;97678.22;6223118;23;20272;-81
2022/11/18 14:04:03;;;;;;;62.73;42.53;;;;;;;5.70;100.00;97686.22;6194726;23;20669;-81
2022/11/18 14:06:38;;;;;;;28.30;19.73;;;;;;;5.54;100.00;97681.66;6220926;23;20162;-81
2022/11/18 14:09:10;;;;;;;37.93;27.10;;;;;;;5.48;100.00;97680.75;6221906;23;20544;-81
2022/11/18 14:11:45;;;;;;;23.00;18.27;;;;;;;5.38;100.00;97687.69;6224009;23;20150;-82
2022/11/18 14:14:27;;;;;;;24.17;19.77;;;;;;;5.41;100.00;97679.25;6225613;23;20149;-81
2022/11/18 14:17:03;;;;;;;20.53;15.10;;;;;;;5.55;100.00;97685.94;6197735;23;20154;-81
2022/11/18 14:19:31;;;;;;;20.03;14.83;;;;;;;5.60;100.00;97699.31;6173610;23;20513;-81
2022/11/18 14:22:05;;;;;;;17.07;11.20;;;;;;;5.52;100.00;97684.53;6172944;23;20189;-85
2022/11/18 14:24:37;;;;;;;17.33;11.60;;;;;;;5.20;100.00;97691.28;6198192;23;20160;-81
2022/11/18 14:27:42;;;;;;;17.33;10.73;;;;;;;5.05;100.00;97705.00;6223103;23;20558;-81
2022/11/18 14:30:27;;;;;;;15.73;9.43;;;;;;;4.78;100.00;97717.94;6173219;23;20228;-81
2022/11/18 14:33:13;;;;;;;17.97;10.57;;;;;;;4.79;100.00;97716.91;6197682;23;20176;-81
2022/11/18 14:35:42;;;;;;;14.90;9.70;;;;;;;4.90;100.00;97722.44;6226028;23;20154;-81
2022/11/18 14:38:21;;;;;;;16.03;9.97;;;;;;;4.74;100.00;97724.72;6174850;23;20232;-81
2022/11/18 14:41:10;;;;;;;14.63;9.57;;;;;;;4.66;100.00;97725.06;6202836;23;20684;-81
2022/11/18 14:43:37;;;;;;;15.03;9.60;;;;;;;4.75;100.00;97723.69;6222900;23;20241;-82
2022/11/18 14:46:11;;;;;;;13.77;9.13;;;;;;;4.74;100.00;97727.38;6222405;23;20264;-80
2022/11/18 14:48:37;;;;;;;14.13;9.10;;;;;;;4.81;100.00;97729.91;6171667;23;20154;-80
2022/11/18 14:51:04;;;;;;;12.13;8.53;;;;;;;4.71;100.00;97735.00;6222345;23;20172;-80
2022/11/18 14:53:31;;;;;;;12.97;9.70;;;;;;;4.57;100.00;97723.78;6196483;23;20162;-81
2022/11/18 14:55:58;;;;;;;16.93;10.03;;;;;;;4.67;100.00;97728.50;6223620;23;20158;-81
2022/11/18 14:58:26;;;;;;;18.20;13.77;;;;;;;4.64;100.00;97739.59;6196331;23;20217;-81
2022/11/18 15:00:53;;;;;;;14.37;9.40;;;;;;;4.54;100.00;97734.00;6225401;23;20158;-81
2022/11/18 15:03:20;;;;;;;12.90;9.37;;;;;;;4.49;100.00;97741.84;6200372;23;20164;-81
2022/11/18 15:05:46;;;;;;;11.80;8.17;;;;;;;4.40;100.00;97744.81;6201930;23;20189;-81
2022/11/18 15:08:15;;;;;;;12.47;8.37;;;;;;;4.39;100.00;97745.84;6178939;23;20600;-81
2022/11/18 15:10:42;;;;;;;13.97;8.30;;;;;;;4.31;100.00;97743.53;6180464;23;20161;-81
2022/11/18 15:13:09;;;;;;;12.97;7.70;;;;;;;4.26;100.00;97740.72;6206066;23;20181;-81
2022/11/18 15:15:35;;;;;;;10.40;7.93;;;;;;;4.23;100.00;97754.44;6203146;23;20170;-81
2022/11/18 15:18:02;;;;;;;11.60;8.03;;;;;;;4.18;100.00;97756.16;6228004;23;20158;-81
2022/11/18 15:20:29;;;;;;;12.77;9.17;;;;;;;4.08;100.00;97754.03;6201578;23;20249;-81
2022/11/18 15:22:56;;;;;;;10.00;7.10;;;;;;;4.26;100.00;97764.59;6199666;23;20220;-81
2022/11/18 15:25:23;;;;;;;10.10;6.70;;;;;;;4.15;100.00;97756.59;6174795;23;20165;-81
2022/11/18 15:27:49;;;;;;;7.70;6.03;;;;;;;4.29;100.00;97771.31;6198704;23;20154;-80
2022/11/18 15:30:16;;;;;;;7.00;5.00;;;;;;;4.21;100.00;97768.94;6225743;23;20166;-82
2022/11/18 15:32:43;;;;;;;7.60;5.60;;;;;;;4.25;100.00;97775.41;6226783;23;20240;-82
2022/11/18 16:00:30;;;;;;;6.57;5.97;;;;;;;3.98;100.00;97815.50;6223428;23;20259;-79
2022/11/18 16:02:57;;;;;;;8.70;7.07;;;;;;;3.89;100.00;97823.97;6222698;23;20197;-80
2022/11/18 16:05:24;;;;;;;8.73;7.13;;;;;;;3.88;100.00;97838.22;6222605;23;20743;-79
2022/11/18 16:07:50;;;;;;;8.53;7.73;;;;;;;3.36;100.00;97850.16;6217448;23;20208;-80
2022/11/18 16:13:05;;;;;;;10.43;8.67;;;;;;;3.21;100.00;97865.53;6216133;23;20220;-79
2022/11/18 16:15:42;;;;;;;10.90;8.97;;;;;;;3.09;100.00;97865.41;6215746;23;20203;-79
2022/11/18 16:18:09;;;;;;;9.70;8.70;;;;;;;3.11;100.00;97873.97;6191008;23;20212;-78
2022/11/18 16:20:36;;;;;;;10.43;8.80;;;;;;;3.11;100.00;97873.97;6189571;23;20205;-79
2022/11/18 16:23:03;;;;;;;11.57;9.70;;;;;;;2.95;100.00;97856.75;6239325;23;20519;-79
2022/11/18 16:25:29;;;;;;;12.73;9.00;;;;;;;3.06;100.00;97861.38;6245782;23;20211;-78
2022/11/18 16:27:56;;;;;;;9.90;8.87;;;;;;;2.94;100.00;97854.34;6246058;23;20213;-79
2022/11/18 16:33:16;;;;;;;11.77;9.30;;;;;;;2.90;100.00;97861.88;6245539;23;20212;-79
2022/11/18 16:35:46;;;;;;;11.77;9.83;;;;;;;2.82;100.00;97863.97;6245683;23;20197;-79
2022/11/18 16:38:13;;;;;;;10.77;8.90;;;;;;;2.87;100.00;97870.25;6247230;23;20227;-79
2022/11/18 16:40:40;;;;;;;10.10;8.33;;;;;;;2.91;100.00;97879.38;6245642;23;20211;-78
2022/11/18 16:43:07;;;;;;;10.73;8.43;;;;;;;2.75;100.00;97876.44;6218793;23;20209;-78
2022/11/18 16:45:34;;;;;;;10.83;8.87;;;;;;;2.88;100.00;97873.72;6245749;23;20618;-78
2022/11/18 16:48:01;;;;;;;11.20;9.20;;;;;;;2.80;100.00;97882.69;6246037;23;20181;-78
2022/11/18 16:50:27;;;;;;;9.07;8.17;;;;;;;2.88;100.00;97893.03;6242567;23;20239;-77
2022/11/18 16:52:54;;;;;;;10.97;8.93;;;;;;;2.74;100.00;97883.56;6242576;23;20205;-78
2022/11/18 16:55:21;;;;;;;10.27;9.20;;;;;;;2.78;100.00;97897.16;6244915;23;20665;-78
2022/11/18 16:57:47;;;;;;;9.97;8.97;;;;;;;2.92;100.00;97911.94;6245059;23;20209;-78
2022/11/18 17:00:14;;;;;;;11.40;9.80;;;;;;;2.84;100.00;97906.91;6227016;23;20216;-78
2022/11/18 17:02:41;;;;;;;11.97;10.17;;;;;;;2.69;100.00;97904.53;6221362;23;20518;-79
2022/11/18 17:05:07;;;;;;;16.97;13.07;;;;;;;2.74;100.00;97909.19;6245782;23;20255;-78
2022/11/18 17:07:34;;;;;;;11.53;10.00;;;;;;;2.75;100.00;97918.75;6245422;23;20200;-79
2022/11/18 17:10:04;;;;;;;13.00;10.47;;;;;;;2.76;100.00;97933.56;6244998;23;20205;-79
2022/11/18 17:12:31;;;;;;;19.57;13.87;;;;;;;2.67;100.00;97939.09;6245485;23;20200;-79
2022/11/18 17:14:58;;;;;;;13.13;10.60;;;;;;;2.75;100.00;97935.44;6246452;23;20192;-79
2022/11/18 17:17:24;;;;;;;14.20;12.70;;;;;;;2.80;100.00;97951.44;6245422;23;20204;-78
2022/11/18 17:19:51;;;;;;;12.07;10.27;;;;;;;2.85;100.00;97943.69;6232116;23;20200;-79
2022/11/18 17:22:18;;;;;;;12.63;10.47;;;;;;;2.57;100.00;97953.78;6244607;23;20208;-78
2022/11/18 17:24:44;;;;;;;12.50;10.63;;;;;;;2.61;100.00;97966.38;6245072;23;20196;-78
2022/11/18 17:27:11;;;;;;;12.00;10.30;;;;;;;2.59;100.00;97965.78;6218860;23;20201;-78
2022/11/18 17:29:37;;;;;;;12.27;10.27;;;;;;;2.52;100.00;97969.50;6244881;23;20209;-78
2022/11/18 17:32:05;;;;;;;11.47;9.77;;;;;;;2.50;100.00;97969.69;6244507;23;20200;-78
2022/11/18 17:34:31;;;;;;;10.63;9.53;;;;;;;2.44;100.00;97977.63;6243584;23;20237;-79
2022/11/18 17:36:58;;;;;;;11.27;9.40;;;;;;;2.50;100.00;97979.44;6245257;23;20197;-78
2022/11/18 17:39:32;;;;;;;11.57;9.93;;;;;;;2.41;100.00;97980.69;6245035;23;20586;-79
2022/11/18 17:42:18;;;;;;;12.37;10.20;;;;;;;2.53;100.00;97992.25;6245159;23;20274;-79
2022/11/18 17:44:45;;;;;;;10.70;9.20;;;;;;;2.52;100.00;97998.56;6244806;23;20231;-78
2022/11/18 17:47:12;;;;;;;13.10;9.83;;;;;;;2.44;100.00;97994.31;6219754;23;20200;-78
2022/11/18 17:49:38;;;;;;;10.07;8.60;;;;;;;2.41;100.00;98004.50;6247058;23;20661;-77
2022/11/18 17:52:05;;;;;;;10.30;8.50;;;;;;;2.41;100.00;98012.41;6246366;23;20205;-78
2022/11/18 17:54:32;;;;;;;10.20;8.97;;;;;;;2.29;100.00;98009.56;6247165;23;20588;-78
2022/11/18 17:56:58;;;;;;;12.07;8.70;;;;;;;2.25;100.00;98015.47;6246984;23;20200;-78
2022/11/18 17:59:25;;;;;;;11.47;8.93;;;;;;;2.26;100.00;98015.28;6246761;23;20653;-78
2022/11/18 18:01:51;;;;;;;9.83;8.40;;;;;;;2.39;100.00;98033.75;6220852;23;20274;-79
2022/11/18 18:04:25;;;;;;;11.73;9.40;;;;;;;2.39;100.00;98044.34;6247987;23;20231;-79
2022/11/18 18:06:52;;;;;;;11.67;9.87;;;;;;;-142.06;100.00;64312.41;6248086;23;20262;-79
2022/11/18 18:09:21;;;;;;;13.37;10.93;;;;;;;2.36;100.00;98050.03;6248324;23;20212;-79
2022/11/18 18:11:55;;;;;;;14.93;11.57;;;;;;;2.24;100.00;98051.66;6223366;23;20757;-78
2022/11/18 18:14:22;;;;;;;13.87;11.57;;;;;;;2.04;100.00;98048.25;6220049;23;20204;-78
2022/11/18 18:16:49;;;;;;;14.37;11.73;;;;;;;2.16;100.00;98057.97;6248029;23;20188;-78
2022/11/18 18:19:18;;;;;;;16.07;12.00;;;;;;;2.01;100.00;98056.53;6246983;23;20279;-78
2022/11/18 18:21:45;;;;;;;13.73;11.47;;;;;;;2.08;100.00;98060.00;6246576;23;20207;-79
2022/11/18 18:24:14;;;;;;;13.73;11.10;;;;;;;2.11;100.00;98059.59;6219947;23;20680;-78
2022/11/18 18:26:42;;;;;;;14.30;11.07;;;;;;;2.03;100.00;98060.63;6246979;23;20196;-78
2022/11/18 18:29:08;;;;;;;12.33;10.43;;;;;;;1.96;100.00;98072.22;6247221;23;20181;-79
2022/11/18 18:31:35;;;;;;;12.30;9.53;;;;;;;2.06;100.00;98065.50;6220092;23;20223;-78
2022/11/18 18:34:03;;;;;;;13.90;9.80;;;;;;;2.05;100.00;98071.00;6219353;23;20208;-78
2022/11/18 18:36:30;;;;;;;10.73;8.83;;;;;;;2.06;100.00;98088.44;6221200;23;20207;-79
2022/11/18 18:38:57;;;;;;;12.97;9.93;;;;;;;1.95;100.00;98089.06;6247051;23;20204;-79
2022/11/18 18:41:24;;;;;;;14.70;12.00;;;;;;;1.90;100.00;98096.78;6220764;23;20691;-79
2022/11/18 18:43:50;;;;;;;15.77;11.83;;;;;;;1.80;100.00;98096.38;6247312;23;20205;-78
2022/11/18 18:46:30;;;;;;;17.43;13.00;;;;;;;1.72;100.00;98102.66;6246657;23;20204;-78
2022/11/18 18:49:07;;;;;;;18.93;13.50;;;;;;;1.73;100.00;98105.06;6220431;23;20232;-78
2022/11/18 18:51:40;;;;;;;16.17;12.57;;;;;;;1.73;100.00;98114.81;6218265;23;20207;-81
2022/11/18 18:54:09;;;;;;;16.07;11.80;;;;;;;1.78;100.00;98112.41;6216319;23;20251;-79
2022/11/18 18:56:37;;;;;;;15.63;12.27;;;;;;;1.62;100.00;98123.34;6247290;23;20200;-78
2022/11/18 18:59:04;;;;;;;15.30;11.80;;;;;;;1.58;100.00;98119.47;6220298;23;20209;-79
2022/11/18 19:01:32;;;;;;;15.80;12.00;;;;;;;1.60;100.00;98122.72;6247652;23;20204;-79
2022/11/18 19:04:01;;;;;;;15.40;12.43;;;;;;;1.55;100.00;98131.22;6247209;23;20665;-79
2022/11/18 19:06:33;;;;;;;16.87;12.17;;;;;;;1.50;100.00;98135.47;6227419;23;20197;-80
2022/11/18 19:09:20;;;;;;;16.77;12.47;;;;;;;1.47;100.00;98141.16;6232451;23;20579;-79
2022/11/18 19:14:33;;;;;;;18.20;13.90;;;;;;;1.43;100.00;98143.38;6246399;23;20200;-80
2022/11/18 19:17:00;;;;;;;17.20;13.13;;;;;;;1.37;100.00;98154.72;6245805;23;20212;-78
2022/11/18 19:22:21;;;;;;;16.50;12.53;;;;;;;1.43;100.00;98163.69;6251765;23;20188;-80
2022/11/18 19:24:47;;;;;;;16.60;12.90;;;;;;;1.39;100.00;98170.38;6257278;23;20232;-80
2022/11/18 19:27:37;;;;;;;17.67;12.73;;;;;;;1.27;100.00;98191.19;6254619;23;20216;-80
2022/11/18 19:30:05;;;;;;;14.67;11.97;;;;;;;1.31;100.00;98181.88;6251537;23;20215;-79
2022/11/18 19:32:36;;;;;;;16.67;11.87;;;;;;;1.24;100.00;98191.59;6225233;23;20207;-80
2022/11/18 19:35:04;;;;;;;12.07;10.23;;;;;;;1.26;100.00;98195.66;6254823;23;20197;-80
2022/11/18 19:37:31;;;;;;;12.83;9.27;;;;;;;1.36;100.00;98200.59;6229036;23;20280;-80
2022/11/18 19:40:00;;;;;;;10.13;7.70;;;;;;;1.56;100.00;98200.69;6257326;23;20195;-80
2022/11/18 19:42:35;;;;;;;10.23;7.63;;;;;;;1.41;100.00;98206.09;6205927;23;20197;-80
2022/11/18 19:45:04;;;;;;;8.77;7.63;;;;;;;1.36;100.00;98208.50;6225979;23;20203;-80
2022/11/18 19:47:34;;;;;;;9.77;7.63;;;;;;;1.48;100.00;98219.34;6230711;23;20217;-80
2022/11/18 19:50:00;;;;;;;7.80;6.93;;;;;;;1.46;100.00;98216.88;6248580;23;20227;-79
2022/11/18 19:58:11;;;;;;;10.60;7.93;;;;;;;1.44;100.00;98240.03;6212549;23;20216;-80
2022/11/18 20:00:38;;;;;;;11.27;8.60;;;;;;;1.46;100.00;98234.53;6177134;23;20209;-80
2022/11/18 20:03:05;;;;;;;10.70;8.43;;;;;;;1.45;100.00;98239.00;6200593;23;20202;-80
2022/11/18 20:05:51;;;;;;;9.37;8.20;;;;;;;1.47;100.00;98238.81;6226297;23;20772;-80